Time;durP1;ratioP1;P1;durP2;ratioP2;P2;SDS_P1;SDS_P2;PMS_P1;PMS_P2;Temp;Humidity;BMP_temperature;BMP_pressure;BME280_temperature;BME280_humidity;BME280_pressure;Samples;Min_cycle;Max_cycle;Signal;HPM_P1;HPM_P2
2021/06/14 00:01:02;;;;;;;4.10;2.90;;;;;;;24.34;55.14;101889.59;4988521;28;20038;-63
2021/06/14 00:03:27;;;;;;;5.93;2.97;;;;;;;24.35;55.16;101884.03;4989229;28;20038;-63
2021/06/14 00:05:53;;;;;;;3.13;2.30;;;;;;;24.34;54.99;101877.00;4999390;28;20034;-63
2021/06/14 00:08:20;;;;;;;3.47;2.75;;;;;;;24.35;54.91;101878.66;4992776;28;20038;-63
2021/06/14 00:10:52;;;;;;;3.88;2.47;;;;;;;24.34;54.99;101879.69;4987444;28;20394;-65
2021/06/14 00:13:19;;;;;;;3.78;2.70;;;;;;;24.35;55.23;101869.78;4989626;28;20054;-63
2021/06/14 00:15:46;;;;;;;3.35;2.60;;;;;;;24.36;55.08;101883.00;4984338;28;20475;-64
2021/06/14 00:18:13;;;;;;;3.78;2.50;;;;;;;24.37;54.68;101881.94;4989395;28;20057;-65
2021/06/14 00:20:41;;;;;;;3.83;2.40;;;;;;;24.36;54.96;101868.75;4991083;28;20030;-64
2021/06/14 00:23:11;;;;;;;4.18;2.60;;;;;;;24.36;54.96;101872.25;4988927;28;20135;-64
2021/06/14 00:25:39;;;;;;;3.78;2.55;;;;;;;24.37;54.91;101873.09;5002127;28;20536;-64
2021/06/14 00:28:05;;;;;;;3.35;2.53;;;;;;;24.37;55.13;101873.09;4987163;28;20112;-64
2021/06/14 00:30:38;;;;;;;2.90;2.47;;;;;;;24.36;55.26;101879.47;4988166;28;20030;-64
2021/06/14 00:33:04;;;;;;;3.08;2.35;;;;;;;24.37;55.34;101881.13;4987944;28;20048;-64
2021/06/14 00:35:29;;;;;;;2.83;2.05;;;;;;;24.37;55.14;101890.00;4988696;28;20042;-64
2021/06/14 00:37:56;;;;;;;3.13;2.35;;;;;;;24.38;55.26;101888.97;4987780;28;20042;-64
2021/06/14 00:40:21;;;;;;;3.10;2.50;;;;;;;24.38;55.37;101891.66;4996772;28;20038;-65
2021/06/14 00:42:47;;;;;;;2.58;1.83;;;;;;;24.37;55.28;101881.94;4991785;28;20039;-64
2021/06/14 00:45:16;;;;;;;3.53;2.13;;;;;;;24.38;55.38;101874.72;5000746;28;20030;-64
2021/06/14 00:47:46;;;;;;;2.92;2.10;;;;;;;24.38;55.27;101866.69;4991869;28;21204;-64
2021/06/14 00:50:13;;;;;;;3.22;2.10;;;;;;;24.39;55.23;101865.66;4993715;28;20084;-64
2021/06/14 00:52:39;;;;;;;3.90;2.22;;;;;;;24.38;54.82;101862.16;5012289;28;20041;-64
2021/06/14 00:55:06;;;;;;;3.97;2.13;;;;;;;24.38;54.83;101859.47;4993416;28;20433;-64
2021/06/14 00:57:31;;;;;;;2.20;1.73;;;;;;;24.39;54.71;101863.81;5002494;28;20065;-63
2021/06/14 00:59:58;;;;;;;4.00;1.98;;;;;;;24.39;54.78;101863.81;4997098;28;20516;-63
2021/06/14 01:02:24;;;;;;;3.22;2.00;;;;;;;24.39;54.75;101861.13;5003847;28;20389;-63
2021/06/14 01:04:49;;;;;;;3.05;1.88;;;;;;;24.38;54.72;101848.75;5005291;28;20030;-64
2021/06/14 01:07:14;;;;;;;4.47;2.53;;;;;;;24.38;54.73;101847.91;4995673;28;20045;-63
2021/06/14 01:09:40;;;;;;;3.97;2.30;;;;;;;24.38;54.51;101854.09;4983588;28;20026;-63
2021/06/14 01:12:09;;;;;;;3.05;1.88;;;;;;;24.38;54.61;101862.16;4996962;28;20384;-63
2021/06/14 01:14:37;;;;;;;2.58;1.90;;;;;;;24.38;54.34;101859.47;4991587;28;20042;-63
2021/06/14 01:17:37;;;;;;;2.70;1.83;;;;;;;24.36;54.73;101860.72;5002155;28;21008;-63
2021/06/14 01:20:48;;;;;;;3.25;1.85;;;;;;;24.34;54.51;101865.44;4994844;28;20042;-64
2021/06/14 01:23:52;;;;;;;4.10;1.90;;;;;;;24.36;54.76;101871.44;4896892;29;20039;-64
2021/06/14 01:26:23;;;;;;;2.85;1.70;;;;;;;24.37;54.61;101871.22;4915501;29;20599;-64
2021/06/14 01:29:00;;;;;;;2.78;1.60;;;;;;;24.35;54.56;101875.97;4978803;28;20039;-64
2021/06/14 01:31:27;;;;;;;2.63;1.90;;;;;;;24.38;54.79;101875.56;5000630;28;20492;-64
2021/06/14 01:33:53;;;;;;;2.47;1.85;;;;;;;24.38;54.51;101891.66;5005204;28;20462;-63
2021/06/14 01:36:28;;;;;;;2.65;1.80;;;;;;;24.37;54.42;101876.59;4985514;28;20038;-64
2021/06/14 01:38:56;;;;;;;2.83;1.75;;;;;;;24.39;54.39;101873.69;5002585;28;20037;-65
2021/06/14 01:41:24;;;;;;;3.00;1.73;;;;;;;24.38;54.30;101875.56;4992570;28;20085;-64
2021/06/14 01:43:51;;;;;;;2.47;1.70;;;;;;;24.38;54.55;101882.78;4991209;28;20057;-64
2021/06/14 01:46:21;;;;;;;3.40;2.03;;;;;;;24.38;54.02;101880.09;5002947;28;20038;-64
2021/06/14 01:48:47;;;;;;;3.58;1.70;;;;;;;24.38;54.29;101872.06;4991288;28;20062;-64
2021/06/14 01:51:16;;;;;;;3.25;1.80;;;;;;;24.36;54.33;101877.63;4991440;28;20026;-64
2021/06/14 01:54:02;;;;;;;3.50;1.67;;;;;;;24.36;54.36;101872.25;4997540;28;20022;-64
2021/06/14 01:56:29;;;;;;;3.45;1.88;;;;;;;24.37;53.85;101871.22;4994992;28;20049;-63
2021/06/14 01:58:56;;;;;;;3.75;1.80;;;;;;;24.37;53.98;101870.41;4989715;28;20030;-64
2021/06/14 02:01:21;;;;;;;2.45;1.70;;;;;;;24.37;53.98;101879.28;4990995;28;20053;-64
2021/06/14 02:03:47;;;;;;;2.67;1.75;;;;;;;24.36;53.81;101866.91;4974815;28;20030;-64
2021/06/14 02:06:13;;;;;;;2.30;1.50;;;;;;;24.36;53.96;101891.03;4992176;28;20088;-64
2021/06/14 02:08:38;;;;;;;2.67;1.80;;;;;;;24.36;53.96;101877.63;4977294;28;20038;-64
2021/06/14 02:11:04;;;;;;;4.03;1.90;;;;;;;24.36;54.09;101890.22;4991195;28;20520;-64
2021/06/14 02:13:30;;;;;;;3.00;1.70;;;;;;;24.34;53.84;101882.38;4989388;28;20038;-63
2021/06/14 02:15:55;;;;;;;2.88;1.80;;;;;;;24.34;53.86;101890.41;4990416;28;20038;-64
2021/06/14 02:18:23;;;;;;;2.10;1.58;;;;;;;24.35;53.44;101896.59;4989723;28;20084;-63
2021/06/14 02:20:49;;;;;;;2.72;1.67;;;;;;;24.35;53.82;101899.28;4990133;28;20118;-64
2021/06/14 02:23:15;;;;;;;2.80;1.55;;;;;;;24.32;53.68;101897.84;4997932;28;20045;-64
2021/06/14 02:25:41;;;;;;;3.17;1.60;;;;;;;24.33;53.52;101899.50;4992852;28;20037;-64
2021/06/14 02:28:06;;;;;;;2.72;1.45;;;;;;;24.33;53.33;101907.53;4977939;28;20039;-64
2021/06/14 02:30:32;;;;;;;1.88;1.33;;;;;;;24.34;53.45;101903.00;4990026;28;20046;-64
2021/06/14 02:32:57;;;;;;;2.50;1.48;;;;;;;24.33;53.66;101922.78;4990476;28;20109;-64
2021/06/14 02:35:25;;;;;;;2.13;1.50;;;;;;;24.33;53.51;101920.94;4990692;28;20401;-64
2021/06/14 02:37:57;;;;;;;2.65;1.40;;;;;;;24.32;53.23;101927.34;4989939;28;20038;-64
2021/06/14 02:40:25;;;;;;;5.18;1.80;;;;;;;24.33;53.37;101928.97;4990276;28;20038;-64
2021/06/14 02:42:52;;;;;;;2.10;1.52;;;;;;;24.33;53.18;101934.34;4982872;28;20041;-64
2021/06/14 02:45:18;;;;;;;2.08;1.42;;;;;;;24.33;53.13;101925.47;4989199;28;20385;-64
2021/06/14 02:47:46;;;;;;;2.15;1.50;;;;;;;24.33;53.26;101931.66;4990424;28;20061;-64
2021/06/14 02:50:14;;;;;;;3.22;1.40;;;;;;;24.33;53.55;101918.25;4987590;28;20037;-64
2021/06/14 02:52:41;;;;;;;1.75;1.27;;;;;;;24.33;53.33;101939.72;4989074;28;20105;-63
2021/06/14 02:55:18;;;;;;;2.92;1.50;;;;;;;24.31;53.17;101931.03;4990425;28;20487;-64
2021/06/14 02:57:52;;;;;;;2.70;1.40;;;;;;;24.32;53.10;101935.38;4990532;28;20141;-64
2021/06/14 03:00:19;;;;;;;1.93;1.10;;;;;;;24.32;53.26;101935.38;4989328;28;20113;-64
2021/06/14 03:02:47;;;;;;;2.22;1.42;;;;;;;24.33;53.32;101938.88;4972859;28;20026;-64
2021/06/14 03:05:13;;;;;;;3.50;1.45;;;;;;;24.33;53.04;101939.72;4973642;28;20046;-64
2021/06/14 03:07:40;;;;;;;2.10;1.30;;;;;;;24.33;53.01;101944.25;5001252;28;20030;-63
2021/06/14 03:10:07;;;;;;;3.65;1.10;;;;;;;24.33;53.36;101945.06;4989738;28;20389;-64
2021/06/14 03:12:33;;;;;;;1.67;1.10;;;;;;;24.34;53.39;101948.59;4984748;28;20034;-64
2021/06/14 03:14:58;;;;;;;1.95;1.30;;;;;;;24.34;53.32;101953.94;5000573;28;20038;-63
2021/06/14 03:17:24;;;;;;;1.60;0.95;;;;;;;24.33;53.22;101952.28;4992889;28;20034;-64
2021/06/14 03:19:53;;;;;;;2.10;1.00;;;;;;;24.33;52.83;101945.06;4988317;28;20065;-64
2021/06/14 03:22:19;;;;;;;2.20;1.15;;;;;;;24.34;53.00;101943.22;4989124;28;20057;-64
2021/06/14 03:24:44;;;;;;;2.08;0.90;;;;;;;24.34;52.79;101940.53;4989967;28;20458;-64
2021/06/14 03:27:11;;;;;;;1.92;1.20;;;;;;;24.33;53.17;101939.72;5002598;28;20065;-64
2021/06/14 03:29:37;;;;;;;1.10;0.98;;;;;;;24.34;52.93;101945.91;4994381;28;20038;-64
2021/06/14 03:32:03;;;;;;;1.48;1.00;;;;;;;24.35;52.99;101951.06;4998078;28;20064;-64
2021/06/14 03:34:31;;;;;;;2.50;1.00;;;;;;;24.35;52.95;101952.91;4990417;28;20034;-64
2021/06/14 03:36:58;;;;;;;1.00;0.70;;;;;;;24.34;53.15;101962.81;4989134;28;20056;-64
2021/06/14 03:39:24;;;;;;;1.35;0.90;;;;;;;24.34;52.92;101962.00;4973633;28;20044;-64
2021/06/14 03:41:51;;;;;;;1.25;0.90;;;;;;;24.34;52.99;101957.47;4971640;28;20042;-64
2021/06/14 03:44:17;;;;;;;1.55;0.75;;;;;;;24.35;53.16;101958.28;4992126;28;20034;-64
2021/06/14 03:46:44;;;;;;;1.30;0.90;;;;;;;24.34;52.98;101962.81;4988605;28;20031;-64
2021/06/14 03:49:09;;;;;;;2.63;1.00;;;;;;;24.36;53.27;101966.13;4991344;28;20153;-64
2021/06/14 03:51:35;;;;;;;3.58;1.25;;;;;;;24.34;53.59;101962.81;4995176;28;20135;-64
2021/06/14 03:54:01;;;;;;;2.58;1.33;;;;;;;24.35;53.52;101967.16;4996560;28;20042;-64
2021/06/14 03:56:29;;;;;;;1.95;0.93;;;;;;;24.35;53.52;101969.00;4991188;28;20038;-64
2021/06/14 03:58:55;;;;;;;1.85;0.90;;;;;;;24.37;53.40;101965.09;4988668;28;20117;-64
2021/06/14 04:01:22;;;;;;;2.67;1.00;;;;;;;24.36;53.26;101963.44;4999991;28;20033;-64
2021/06/14 04:04:39;;;;;;;2.58;1.00;;;;;;;24.38;53.86;101968.59;4988823;28;20104;-64
2021/06/14 04:06:33;;;;;;;1.45;0.80;;;;;;;24.36;53.85;101966.13;4974731;28;20057;-63
2021/06/14 04:08:59;;;;;;;1.73;0.80;;;;;;;24.37;53.64;101962.41;4988285;28;20533;-64
2021/06/14 04:11:25;;;;;;;0.75;0.60;;;;;;;24.38;53.44;101969.44;4988765;28;20045;-64
2021/06/14 04:13:50;;;;;;;2.33;0.90;;;;;;;24.38;53.88;101977.47;4987639;28;20755;-65
2021/06/14 04:16:17;;;;;;;1.70;0.93;;;;;;;24.38;53.90;101982.84;4987842;28;20120;-64
2021/06/14 04:18:42;;;;;;;1.83;0.95;;;;;;;24.39;53.32;101981.81;4971277;28;20243;-64
2021/06/14 04:21:08;;;;;;;1.33;0.73;;;;;;;24.38;53.46;101985.53;4992275;28;20030;-64
2021/06/14 04:23:33;;;;;;;1.65;0.70;;;;;;;24.38;53.29;101990.06;4997151;28;20121;-64
2021/06/14 04:25:59;;;;;;;1.25;0.70;;;;;;;24.38;53.20;101984.69;5005460;28;20038;-64
2021/06/14 04:28:25;;;;;;;0.98;0.60;;;;;;;24.39;53.04;101986.34;5000038;28;20035;-64
2021/06/14 04:30:50;;;;;;;1.98;0.75;;;;;;;24.38;53.48;101990.88;4987294;28;20098;-64
2021/06/14 04:33:15;;;;;;;1.50;0.88;;;;;;;24.38;53.49;101988.19;4990401;28;20125;-64
2021/06/14 04:35:42;;;;;;;2.20;0.95;;;;;;;24.38;53.26;101988.19;4989210;28;20043;-64
2021/06/14 04:38:07;;;;;;;0.73;0.68;;;;;;;24.39;53.36;101980.97;4990982;28;20089;-64
2021/06/14 04:40:33;;;;;;;1.52;0.60;;;;;;;24.38;53.50;101977.47;4988729;28;20441;-64
2021/06/14 04:42:58;;;;;;;1.35;0.50;;;;;;;24.38;53.53;101993.56;4991094;28;20026;-64
2021/06/14 04:45:24;;;;;;;1.25;0.60;;;;;;;24.39;53.31;101992.53;4979184;28;20129;-64
2021/06/14 04:47:50;;;;;;;0.85;0.60;;;;;;;24.39;52.91;101989.84;4987841;28;20042;-64
2021/06/14 04:50:16;;;;;;;1.08;0.50;;;;;;;24.39;52.95;101992.53;4988944;28;20042;-64
2021/06/14 04:52:41;;;;;;;1.10;0.50;;;;;;;24.38;53.31;101996.25;4988447;28;20137;-64
2021/06/14 04:55:07;;;;;;;0.98;0.50;;;;;;;24.39;53.11;101991.72;4999942;28;20374;-64
2021/06/14 04:57:33;;;;;;;0.75;0.50;;;;;;;24.39;53.32;101997.06;4989272;28;20038;-64
2021/06/14 04:59:58;;;;;;;0.90;0.60;;;;;;;24.38;53.35;102006.97;4987289;28;20030;-65
2021/06/14 05:02:24;;;;;;;0.75;0.40;;;;;;;24.39;53.45;102013.16;4987722;28;20045;-67
2021/06/14 05:04:49;;;;;;;1.10;0.40;;;;;;;24.39;53.24;102008.63;4990504;28;20030;-66
2021/06/14 05:07:15;;;;;;;0.57;0.40;;;;;;;24.39;53.33;102019.34;4988734;28;20520;-64
2021/06/14 05:09:40;;;;;;;0.60;0.60;;;;;;;24.39;53.27;102022.03;4988513;28;20042;-63
2021/06/14 05:12:06;;;;;;;0.45;0.40;;;;;;;24.39;52.84;102018.53;4988050;28;20381;-64
2021/06/14 05:14:32;;;;;;;0.75;0.60;;;;;;;24.39;52.55;102016.69;4987936;28;20049;-64
2021/06/14 05:16:57;;;;;;;0.40;0.40;;;;;;;24.38;52.54;102028.44;4988548;28;20042;-64
2021/06/14 05:19:23;;;;;;;0.88;0.40;;;;;;;24.38;52.43;102023.06;4969985;28;20121;-64
2021/06/14 05:21:48;;;;;;;0.52;0.40;;;;;;;24.39;52.68;102029.25;4999103;28;20125;-61
2021/06/14 05:24:14;;;;;;;0.82;0.47;;;;;;;24.38;52.34;102032.97;4991463;28;20049;-63
2021/06/14 05:26:39;;;;;;;0.75;0.40;;;;;;;24.38;52.66;102033.78;4989044;28;20042;-63
2021/06/14 05:29:05;;;;;;;0.85;0.50;;;;;;;24.38;52.61;102038.34;4987341;28;20388;-64
2021/06/14 05:31:30;;;;;;;2.10;0.77;;;;;;;24.38;52.83;102049.88;4984260;28;20039;-63
2021/06/14 05:33:56;;;;;;;0.55;0.38;;;;;;;24.38;52.14;102057.09;4991433;28;20435;-63
2021/06/14 05:36:21;;;;;;;0.45;0.40;;;;;;;24.37;52.31;102056.28;4989031;28;20053;-64
2021/06/14 05:38:47;;;;;;;0.68;0.40;;;;;;;24.38;51.89;102049.06;4976661;28;20117;-64
2021/06/14 05:41:12;;;;;;;0.65;0.40;;;;;;;24.36;51.76;102057.31;4991901;28;20477;-63
2021/06/14 05:43:38;;;;;;;0.93;0.60;;;;;;;24.37;51.54;102071.53;5002738;28;20034;-63
2021/06/14 05:46:03;;;;;;;1.17;0.52;;;;;;;24.36;51.37;102062.69;4995102;28;20018;-63
2021/06/14 05:48:28;;;;;;;0.50;0.40;;;;;;;24.35;51.52;102069.06;4993098;28;20054;-63
2021/06/14 05:50:54;;;;;;;0.60;0.38;;;;;;;24.37;51.72;102076.91;4991240;28;20065;-63
2021/06/14 05:53:21;;;;;;;1.42;0.47;;;;;;;24.35;51.42;102082.47;4994253;28;20038;-63
2021/06/14 05:55:48;;;;;;;1.13;0.50;;;;;;;24.36;51.36;102094.03;4990603;28;20458;-63
2021/06/14 05:58:13;;;;;;;1.13;0.50;;;;;;;24.36;51.35;102084.13;4995889;28;20034;-63
2021/06/14 06:00:39;;;;;;;1.63;0.57;;;;;;;24.35;50.93;102087.84;4990462;28;20482;-63
2021/06/14 06:03:04;;;;;;;10.02;0.95;;;;;;;24.34;50.67;102083.50;4973330;28;20058;-63
2021/06/14 06:05:30;;;;;;;0.80;0.40;;;;;;;24.35;50.84;102081.66;4993052;28;20124;-63
2021/06/14 06:07:55;;;;;;;1.40;0.60;;;;;;;24.33;50.57;102095.25;4994058;28;20046;-64
2021/06/14 06:10:21;;;;;;;2.33;0.60;;;;;;;24.33;50.54;102097.13;4995015;28;20034;-63
2021/06/14 06:12:46;;;;;;;2.03;0.68;;;;;;;24.32;50.76;102090.91;4990957;28;20061;-64
2021/06/14 06:15:15;;;;;;;1.13;0.50;;;;;;;24.33;50.56;102086.38;4994818;28;20030;-63
2021/06/14 06:17:40;;;;;;;2.80;0.82;;;;;;;24.33;50.16;102095.25;4992177;28;20045;-63
2021/06/14 06:20:09;;;;;;;2.72;0.60;;;;;;;24.33;50.17;102094.44;4991088;28;20042;-64
2021/06/14 06:22:35;;;;;;;2.75;0.90;;;;;;;24.31;50.07;102094.63;5004098;28;20156;-63
2021/06/14 06:25:04;;;;;;;1.15;0.60;;;;;;;24.31;50.22;102091.13;4990632;28;20042;-63
2021/06/14 06:27:30;;;;;;;2.80;0.70;;;;;;;24.31;50.07;102091.13;4984457;28;20392;-64
2021/06/14 06:29:55;;;;;;;1.45;0.55;;;;;;;24.31;50.04;102096.50;4979741;28;20026;-64
2021/06/14 06:32:21;;;;;;;1.30;0.60;;;;;;;24.31;49.82;102091.13;4990175;28;20030;-65
2021/06/14 06:34:46;;;;;;;1.60;0.60;;;;;;;24.31;49.99;102091.13;4989025;28;20030;-65
2021/06/14 06:37:11;;;;;;;2.25;0.70;;;;;;;24.31;50.17;102086.59;4990503;28;20046;-64
2021/06/14 06:39:37;;;;;;;3.35;0.73;;;;;;;24.31;49.86;102091.94;5001228;28;20466;-64
2021/06/14 06:42:02;;;;;;;4.82;0.93;;;;;;;24.31;50.07;102083.91;4990591;28;20494;-64
2021/06/14 06:44:29;;;;;;;2.45;0.60;;;;;;;24.32;50.07;102085.56;4973768;28;20548;-64
2021/06/14 06:46:55;;;;;;;2.15;0.70;;;;;;;24.33;50.43;102084.53;4980205;28;20393;-64
2021/06/14 06:49:20;;;;;;;3.83;1.15;;;;;;;24.31;49.79;102083.06;4992977;28;20066;-64
2021/06/14 06:51:46;;;;;;;3.45;0.98;;;;;;;24.26;49.25;102083.63;4992645;28;20054;-65
2021/06/14 06:54:11;;;;;;;5.00;1.20;;;;;;;24.19;48.77;102086.25;4989870;28;20596;-64
2021/06/14 06:56:48;;;;;;;5.88;1.23;;;;;;;24.12;48.17;102087.22;4991950;28;20089;-64
2021/06/14 06:59:14;;;;;;;3.80;1.10;;;;;;;24.07;47.62;102087.00;5000712;28;20034;-64
2021/06/14 07:01:40;;;;;;;4.28;0.90;;;;;;;24.02;47.30;102092.97;4989254;28;20362;-64
2021/06/14 07:04:07;;;;;;;6.55;1.55;;;;;;;23.99;47.40;102095.22;4997331;28;20045;-65
2021/06/14 07:06:34;;;;;;;4.88;1.83;;;;;;;23.97;47.70;102094.53;4995288;28;20034;-64
2021/06/14 07:09:00;;;;;;;8.45;1.30;;;;;;;23.94;47.11;102087.72;4971862;28;20108;-65
2021/06/14 07:11:27;;;;;;;9.80;1.35;;;;;;;23.94;47.12;102097.63;4990080;28;20446;-66
2021/06/14 07:13:53;;;;;;;8.82;1.42;;;;;;;23.91;47.18;102090.81;4988759;28;20474;-65
2021/06/14 07:16:19;;;;;;;5.35;0.90;;;;;;;23.90;47.19;102094.50;4996903;28;20128;-65
2021/06/14 07:18:45;;;;;;;5.45;1.10;;;;;;;23.87;47.08;102095.72;4991714;28;20466;-65
2021/06/14 07:21:12;;;;;;;5.35;1.55;;;;;;;23.86;46.95;102099.44;4986210;28;20113;-64
2021/06/14 07:23:38;;;;;;;5.10;1.17;;;;;;;23.87;46.91;102095.72;4989680;28;20041;-65
2021/06/14 07:26:03;;;;;;;5.20;1.08;;;;;;;23.85;46.57;102099.63;4971462;28;20538;-65
2021/06/14 07:28:29;;;;;;;4.55;1.10;;;;;;;23.84;46.64;102093.44;4989047;28;20037;-65
2021/06/14 07:30:54;;;;;;;8.18;1.77;;;;;;;23.82;46.39;102100.00;4971415;28;20062;-65
2021/06/14 07:33:20;;;;;;;9.95;2.25;;;;;;;23.78;46.10;102104.91;4990991;28;20034;-65
2021/06/14 07:35:45;;;;;;;10.05;2.95;;;;;;;23.77;45.57;102102.44;4989575;28;20076;-65
2021/06/14 07:38:12;;;;;;;11.35;2.95;;;;;;;23.74;45.24;102106.34;4989113;28;20034;-64
2021/06/14 07:40:38;;;;;;;11.80;3.00;;;;;;;23.72;45.41;102100.34;4989663;28;20514;-65
2021/06/14 07:43:05;;;;;;;13.70;3.22;;;;;;;23.71;45.27;102104.06;4988905;28;20038;-64
2021/06/14 07:45:31;;;;;;;10.68;2.72;;;;;;;23.70;45.30;102105.06;4988188;28;20402;-64
2021/06/14 07:47:56;;;;;;;12.27;2.97;;;;;;;23.69;45.13;102103.41;4998216;28;20058;-65
2021/06/14 07:50:21;;;;;;;11.57;3.05;;;;;;;23.68;44.70;102101.75;4988427;28;20045;-65
2021/06/14 07:52:47;;;;;;;10.07;2.30;;;;;;;23.66;44.73;102094.91;4988682;28;20049;-65
2021/06/14 07:55:13;;;;;;;8.50;2.28;;;;;;;23.66;44.36;102095.75;4992659;28;20544;-65
2021/06/14 07:57:40;;;;;;;14.02;2.33;;;;;;;23.66;44.61;102087.72;4990678;28;20038;-65
2021/06/14 08:00:08;;;;;;;11.90;2.00;;;;;;;23.66;44.63;102094.91;4989173;28;20177;-65
2021/06/14 08:02:35;;;;;;;18.00;2.60;;;;;;;23.66;44.21;102097.59;4971355;28;20540;-66
2021/06/14 08:05:02;;;;;;;10.57;2.75;;;;;;;23.65;44.62;102085.22;4972112;28;20042;-65
2021/06/14 08:07:28;;;;;;;10.15;3.13;;;;;;;23.64;44.30;102089.75;4995958;28;20121;-65
2021/06/14 08:10:00;;;;;;;11.65;2.53;;;;;;;23.64;44.28;102086.25;4989608;28;20038;-66
2021/06/14 08:12:25;;;;;;;12.95;1.83;;;;;;;23.63;44.24;102097.97;4988469;28;20066;-66
2021/06/14 08:14:51;;;;;;;10.00;1.85;;;;;;;23.60;43.91;102089.31;4986568;28;20042;-65
2021/06/14 08:17:16;;;;;;;8.57;2.33;;;;;;;23.59;43.99;102097.53;4969972;28;20398;-66
2021/06/14 08:27:17;;;;;;;7.80;1.90;;;;;;;23.58;43.75;102096.72;4965349;28;20034;-66
2021/06/14 08:29:42;;;;;;;5.55;1.80;;;;;;;23.58;43.13;102101.25;5006168;28;20029;-64
2021/06/14 08:32:08;;;;;;;8.77;1.88;;;;;;;23.56;43.43;102097.91;5006481;28;20405;-66
2021/06/14 08:34:33;;;;;;;7.05;1.60;;;;;;;23.53;43.00;102109.00;4979221;28;20172;-63
2021/06/14 08:36:59;;;;;;;5.32;1.50;;;;;;;23.52;42.88;102102.00;4995468;28;20038;-62
2021/06/14 08:39:25;;;;;;;8.27;1.70;;;;;;;23.52;42.88;102107.34;4969262;28;20188;-63
2021/06/14 08:41:50;;;;;;;9.88;1.92;;;;;;;23.50;42.66;102107.50;4976703;28;20046;-63
2021/06/14 08:44:16;;;;;;;7.95;2.47;;;;;;;23.51;42.91;102119.06;4973800;28;20038;-62
2021/06/14 08:46:41;;;;;;;10.68;1.98;;;;;;;23.50;42.93;102110.19;4990677;28;20038;-63
2021/06/14 08:49:07;;;;;;;10.77;2.42;;;;;;;23.50;42.55;102109.38;4967240;28;20645;-63
2021/06/14 08:51:33;;;;;;;10.15;2.53;;;;;;;23.50;42.77;102107.50;4975824;28;20563;-63
2021/06/14 08:53:59;;;;;;;9.52;1.73;;;;;;;23.49;42.59;102113.91;4966435;28;20129;-62
2021/06/14 08:56:27;;;;;;;11.75;2.30;;;;;;;23.49;42.56;102123.78;4950784;28;20198;-63
2021/06/14 08:58:56;;;;;;;8.05;1.92;;;;;;;23.48;42.01;102114.91;4967331;28;20030;-63
2021/06/14 09:01:21;;;;;;;6.70;1.70;;;;;;;23.48;42.27;102119.44;4968810;28;20042;-62
2021/06/14 09:03:47;;;;;;;3.83;1.38;;;;;;;23.46;41.86;102124.16;4971726;28;20030;-63
2021/06/14 09:06:13;;;;;;;4.20;1.30;;;;;;;23.45;41.28;102120.66;4975497;28;20054;-62
2021/06/14 09:08:38;;;;;;;5.30;1.27;;;;;;;23.44;41.50;102120.84;4971278;28;21425;-62
2021/06/14 09:11:09;;;;;;;4.68;1.40;;;;;;;23.43;40.76;102125.38;4971215;28;20122;-62
2021/06/14 09:13:35;;;;;;;5.05;1.40;;;;;;;23.42;40.58;102122.91;4973250;28;20041;-62
2021/06/14 09:16:09;;;;;;;5.38;1.23;;;;;;;23.41;41.03;102123.91;4970103;28;20038;-62
2021/06/14 09:18:35;;;;;;;;;;;;;;;23.34;41.07;102117.66;4987504;28;20070;-62
2021/06/14 09:21:07;;;;;;;4.78;1.42;;;;;;;23.38;40.61;102127.81;4972023;28;19930;-62
2021/06/14 09:24:04;;;;;;;4.50;1.63;;;;;;;23.35;40.08;102127.34;4972847;28;20042;-62
2021/06/14 09:26:37;;;;;;;4.07;1.52;;;;;;;23.36;40.28;102139.75;4972273;28;20150;-62
2021/06/14 09:29:09;;;;;;;6.50;1.52;;;;;;;23.33;39.98;102126.69;4983179;28;20076;-63
2021/06/14 09:31:41;;;;;;;5.50;1.40;;;;;;;23.28;39.92;102127.28;4973632;28;20054;-62
2021/06/14 09:34:08;;;;;;;6.00;1.63;;;;;;;23.27;39.55;102131.81;4972051;28;20073;-63
2021/06/14 09:36:33;;;;;;;8.02;1.30;;;;;;;23.26;39.95;102134.69;4972442;28;20039;-62
2021/06/14 09:39:11;;;;;;;5.75;1.60;;;;;;;23.25;40.12;102135.69;4974081;28;20034;-63
2021/06/14 09:41:39;;;;;;;6.03;1.52;;;;;;;23.27;39.73;102133.66;4970790;28;20047;-63
2021/06/14 09:44:05;;;;;;;5.20;1.30;;;;;;;23.27;39.55;102131.81;4972962;28;20050;-63
2021/06/14 09:46:32;;;;;;;5.75;1.67;;;;;;;23.29;40.17;102147.69;4983305;28;20043;-62
2021/06/14 09:49:00;;;;;;;4.88;1.40;;;;;;;23.29;39.70;102129.75;4984867;28;20050;-63
2021/06/14 09:51:27;;;;;;;6.78;1.30;;;;;;;23.32;39.85;102131.22;4991246;28;20656;-62
2021/06/14 09:53:54;;;;;;;5.80;1.38;;;;;;;23.31;40.28;102140.28;4999441;28;20041;-63
2021/06/14 09:56:23;;;;;;;3.83;1.00;;;;;;;23.31;40.19;102142.97;4994666;28;20053;-63
2021/06/14 09:58:59;;;;;;;6.00;1.35;;;;;;;23.30;40.40;102143.97;4990876;28;20049;-63
2021/06/14 10:01:27;;;;;;;3.22;1.10;;;;;;;23.31;40.08;102140.28;4991932;28;20108;-62
2021/06/14 10:03:53;;;;;;;4.20;1.10;;;;;;;23.31;40.36;102132.25;5006915;28;20061;-62
2021/06/14 10:06:30;;;;;;;4.78;1.48;;;;;;;23.29;40.13;102129.75;5008503;28;20113;-62
2021/06/14 10:08:55;;;;;;;4.82;1.30;;;;;;;23.33;40.57;102127.53;4990525;28;20474;-63
2021/06/14 10:11:21;;;;;;;3.88;1.20;;;;;;;23.33;40.82;102124.84;4991819;28;20034;-62
2021/06/14 10:13:50;;;;;;;6.97;1.38;;;;;;;23.31;40.54;102130.41;5001705;28;20033;-63
2021/06/14 10:16:25;;;;;;;2.92;1.10;;;;;;;23.33;40.49;102127.53;4991499;28;20057;-63
2021/06/14 10:19:00;;;;;;;3.47;1.08;;;;;;;23.31;40.41;102129.56;4990530;28;20030;-62
2021/06/14 10:21:34;;;;;;;6.47;1.60;;;;;;;23.32;40.40;102128.56;4985548;28;20093;-62
2021/06/14 10:24:01;;;;;;;4.37;1.13;;;;;;;23.34;40.40;102131.03;5005414;28;20088;-62
2021/06/14 10:26:28;;;;;;;4.35;1.20;;;;;;;23.35;40.39;102130.00;5003957;28;20283;-62
2021/06/14 10:28:55;;;;;;;4.00;1.40;;;;;;;23.34;40.34;102133.72;4990122;28;20050;-62
2021/06/14 10:31:22;;;;;;;3.45;1.10;;;;;;;23.32;40.38;102139.25;5004047;28;20379;-62
2021/06/14 10:33:52;;;;;;;10.20;2.25;;;;;;;23.30;40.27;102130.59;4991015;28;20038;-62
2021/06/14 10:36:22;;;;;;;5.97;1.38;;;;;;;23.28;39.77;102130.78;4990315;28;20038;-62
2021/06/14 10:38:49;;;;;;;4.88;1.60;;;;;;;23.29;40.11;102134.28;4993497;28;20498;-62
2021/06/14 10:41:16;;;;;;;3.47;1.30;;;;;;;23.28;39.96;102133.47;4993187;28;20034;-62
2021/06/14 10:43:42;;;;;;;5.63;1.38;;;;;;;23.29;40.10;102143.16;4973119;28;20052;-62
2021/06/14 10:46:18;;;;;;;5.72;1.45;;;;;;;23.27;39.82;102158.59;5000021;28;20039;-62
2021/06/14 10:48:46;;;;;;;5.13;1.30;;;;;;;23.29;40.22;102153.88;4993396;28;20050;-62
2021/06/14 10:51:19;;;;;;;6.07;1.55;;;;;;;23.26;40.02;102151.56;4988150;28;20142;-63
2021/06/14 10:53:52;;;;;;;4.32;1.40;;;;;;;23.28;40.21;102149.53;4990730;28;20036;-63
2021/06/14 10:56:24;;;;;;;5.63;1.13;;;;;;;23.28;39.97;102148.69;5001250;28;20030;-63
2021/06/14 10:59:00;;;;;;;2.70;1.05;;;;;;;23.28;39.64;102149.53;4992739;28;20026;-63
2021/06/14 11:01:40;;;;;;;3.97;1.23;;;;;;;23.27;39.97;102152.41;4992660;28;20049;-62
2021/06/14 11:04:07;;;;;;;4.70;1.30;;;;;;;23.29;39.88;102158.38;5001054;28;20037;-62
2021/06/14 11:06:36;;;;;;;5.35;1.60;;;;;;;23.29;39.70;102153.03;4990865;28;20034;-63
2021/06/14 11:09:19;;;;;;;5.93;1.50;;;;;;;23.26;39.86;102154.25;4997192;28;20054;-62
2021/06/14 11:11:54;;;;;;;6.77;1.50;;;;;;;23.27;39.86;102152.41;4991507;28;20034;-63
2021/06/14 11:14:33;;;;;;;3.78;1.20;;;;;;;23.26;39.78;102153.41;4991850;28;20288;-62
2021/06/14 11:17:18;;;;;;;7.05;1.88;;;;;;;23.29;39.76;102161.91;4992274;28;20489;-62
2021/06/14 11:20:07;;;;;;;4.63;1.55;;;;;;;23.24;39.74;102163.50;4985939;28;20028;-63
2021/06/14 11:22:43;;;;;;;2.47;1.08;;;;;;;23.27;39.93;102165.78;5000352;28;20553;-63
2021/06/14 11:25:30;;;;;;;5.18;1.35;;;;;;;23.26;39.95;102164.13;4989554;28;20030;-63
2021/06/14 11:27:57;;;;;;;5.82;1.30;;;;;;;23.27;39.72;102149.72;4996119;28;20101;-63
2021/06/14 11:30:28;;;;;;;6.63;1.50;;;;;;;23.26;39.66;102154.25;4999381;28;20116;-63
2021/06/14 11:32:54;;;;;;;5.43;1.52;;;;;;;23.26;39.32;102162.28;4989061;28;20038;-63
2021/06/14 11:35:21;;;;;;;5.05;1.60;;;;;;;23.27;39.28;102152.41;4990301;28;20137;-63